Aviation Digital Data Service (ADDS)

Output produced by TAFs form (2023 UTC 18 July 2018)
found at http://www.aviationweather.gov/adds/tafs/
 
KDLH 181745Z 1818/1918 23008KT P6SM BKN040 BKN150 
     FM182300 20006KT P6SM SCT150 
     FM191300 VRB04KT P6SM SCT080 BKN150 
     FM191500 15008KT P6SM VCSH BKN060 OVC120